sensor_id;sensor_type;location;lat;lon;timestamp;P1;P2;P0
28026;PMS5003;15344;52.342;-1.290;2023-04-24T00:01:04;25;23;
28026;PMS5003;15344;52.342;-1.290;2023-04-24T00:03:30;30;27;
28026;PMS5003;15344;52.342;-1.290;2023-04-24T00:05:56;25;20;
28026;PMS5003;15344;52.342;-1.290;2023-04-24T00:08:21;24;24;
28026;PMS5003;15344;52.342;-1.290;2023-04-24T00:10:46;36;28;
28026;PMS5003;15344;52.342;-1.290;2023-04-24T00:13:12;33;26;
28026;PMS5003;15344;52.342;-1.290;2023-04-24T00:15:37;29;26;
28026;PMS5003;15344;52.342;-1.290;2023-04-24T00:18:02;27;23;
28026;PMS5003;15344;52.342;-1.290;2023-04-24T00:20:28;25;23;
28026;PMS5003;15344;52.342;-1.290;2023-04-24T00:22:53;25;21;
28026;PMS5003;15344;52.342;-1.290;2023-04-24T00:25:19;26;24;
28026;PMS5003;15344;52.342;-1.290;2023-04-24T00:27:45;30;24;
28026;PMS5003;15344;52.342;-1.290;2023-04-24T00:30:11;23;20;
28026;PMS5003;15344;52.342;-1.290;2023-04-24T00:32:36;26;22;
28026;PMS5003;15344;52.342;-1.290;2023-04-24T00:35:02;21;16;
28026;PMS5003;15344;52.342;-1.290;2023-04-24T00:37:27;23;18;
28026;PMS5003;15344;52.342;-1.290;2023-04-24T00:39:53;16;14;
28026;PMS5003;15344;52.342;-1.290;2023-04-24T00:42:18;19;15;
28026;PMS5003;15344;52.342;-1.290;2023-04-24T00:44:43;16;12;
28026;PMS5003;15344;52.342;-1.290;2023-04-24T00:47:09;16;14;
28026;PMS5003;15344;52.342;-1.290;2023-04-24T00:49:34;14;12;
28026;PMS5003;15344;52.342;-1.290;2023-04-24T00:51:59;20;12;
28026;PMS5003;15344;52.342;-1.290;2023-04-24T00:54:25;21;15;
28026;PMS5003;15344;52.342;-1.290;2023-04-24T00:56:50;17;13;
28026;PMS5003;15344;52.342;-1.290;2023-04-24T00:59:16;15;13;
28026;PMS5003;15344;52.342;-1.290;2023-04-24T01:01:41;18;16;
28026;PMS5003;15344;52.342;-1.290;2023-04-24T01:04:07;16;13;
28026;PMS5003;15344;52.342;-1.290;2023-04-24T01:06:32;13;10;
28026;PMS5003;15344;52.342;-1.290;2023-04-24T01:08:58;14;12;
28026;PMS5003;15344;52.342;-1.290;2023-04-24T01:11:23;18;14;
28026;PMS5003;15344;52.342;-1.290;2023-04-24T01:13:49;15;12;
28026;PMS5003;15344;52.342;-1.290;2023-04-24T01:16:14;16;12;
28026;PMS5003;15344;52.342;-1.290;2023-04-24T01:18:39;20;16;
28026;PMS5003;15344;52.342;-1.290;2023-04-24T01:21:04;16;12;
28026;PMS5003;15344;52.342;-1.290;2023-04-24T01:23:30;14;11;
28026;PMS5003;15344;52.342;-1.290;2023-04-24T01:25:55;16;14;
28026;PMS5003;15344;52.342;-1.290;2023-04-24T01:28:20;15;14;
28026;PMS5003;15344;52.342;-1.290;2023-04-24T01:30:45;11;10;
28026;PMS5003;15344;52.342;-1.290;2023-04-24T01:33:11;11;10;
28026;PMS5003;15344;52.342;-1.290;2023-04-24T01:35:36;15;10;
28026;PMS5003;15344;52.342;-1.290;2023-04-24T01:38:02;15;11;
28026;PMS5003;15344;52.342;-1.290;2023-04-24T01:40:27;14;10;
28026;PMS5003;15344;52.342;-1.290;2023-04-24T01:42:52;13;10;
28026;PMS5003;15344;52.342;-1.290;2023-04-24T01:45:18;16;11;
28026;PMS5003;15344;52.342;-1.290;2023-04-24T01:47:43;12;10;
28026;PMS5003;15344;52.342;-1.290;2023-04-24T01:50:09;14;10;
28026;PMS5003;15344;52.342;-1.290;2023-04-24T01:52:34;16;11;
28026;PMS5003;15344;52.342;-1.290;2023-04-24T01:54:59;13;12;
28026;PMS5003;15344;52.342;-1.290;2023-04-24T01:57:24;14;10;
28026;PMS5003;15344;52.342;-1.290;2023-04-24T01:59:50;13;10;
28026;PMS5003;15344;52.342;-1.290;2023-04-24T02:02:15;12;10;
28026;PMS5003;15344;52.342;-1.290;2023-04-24T02:04:40;12;8;
28026;PMS5003;15344;52.342;-1.290;2023-04-24T02:07:05;10;8;
28026;PMS5003;15344;52.342;-1.290;2023-04-24T02:09:31;10;8;
28026;PMS5003;15344;52.342;-1.290;2023-04-24T02:11:56;8;8;
28026;PMS5003;15344;52.342;-1.290;2023-04-24T02:14:21;9;8;
28026;PMS5003;15344;52.342;-1.290;2023-04-24T02:16:47;9;7;
28026;PMS5003;15344;52.342;-1.290;2023-04-24T02:19:12;7;6;
28026;PMS5003;15344;52.342;-1.290;2023-04-24T02:21:37;9;7;
28026;PMS5003;15344;52.342;-1.290;2023-04-24T02:24:03;9;7;
28026;PMS5003;15344;52.342;-1.290;2023-04-24T02:26:28;6;5;
28026;PMS5003;15344;52.342;-1.290;2023-04-24T02:28:53;6;6;
28026;PMS5003;15344;52.342;-1.290;2023-04-24T02:31:19;6;6;
28026;PMS5003;15344;52.342;-1.290;2023-04-24T02:33:44;6;4;
28026;PMS5003;15344;52.342;-1.290;2023-04-24T02:36:10;8;7;
28026;PMS5003;15344;52.342;-1.290;2023-04-24T02:38:35;8;6;
28026;PMS5003;15344;52.342;-1.290;2023-04-24T02:41:01;7;4;
28026;PMS5003;15344;52.342;-1.290;2023-04-24T02:43:26;6;5;
28026;PMS5003;15344;52.342;-1.290;2023-04-24T02:45:52;10;5;
28026;PMS5003;15344;52.342;-1.290;2023-04-24T02:48:17;6;4;
28026;PMS5003;15344;52.342;-1.290;2023-04-24T02:50:43;5;3;
28026;PMS5003;15344;52.342;-1.290;2023-04-24T02:53:08;9;6;
28026;PMS5003;15344;52.342;-1.290;2023-04-24T02:55:34;9;6;
28026;PMS5003;15344;52.342;-1.290;2023-04-24T02:57:59;6;5;
28026;PMS5003;15344;52.342;-1.290;2023-04-24T03:00:24;7;5;
28026;PMS5003;15344;52.342;-1.290;2023-04-24T03:02:50;8;6;
28026;PMS5003;15344;52.342;-1.290;2023-04-24T03:05:16;6;6;
28026;PMS5003;15344;52.342;-1.290;2023-04-24T03:07:41;7;5;
28026;PMS5003;15344;52.342;-1.290;2023-04-24T03:10:07;8;5;
28026;PMS5003;15344;52.342;-1.290;2023-04-24T03:12:32;10;5;
28026;PMS5003;15344;52.342;-1.290;2023-04-24T03:14:57;4;4;
28026;PMS5003;15344;52.342;-1.290;2023-04-24T03:17:23;7;4;
28026;PMS5003;15344;52.342;-1.290;2023-04-24T03:19:48;4;4;
28026;PMS5003;15344;52.342;-1.290;2023-04-24T03:22:13;7;5;
28026;PMS5003;15344;52.342;-1.290;2023-04-24T03:24:39;5;5;
28026;PMS5003;15344;52.342;-1.290;2023-04-24T03:27:04;6;6;
28026;PMS5003;15344;52.342;-1.290;2023-04-24T03:29:29;4;4;
28026;PMS5003;15344;52.342;-1.290;2023-04-24T03:31:55;9;6;
28026;PMS5003;15344;52.342;-1.290;2023-04-24T03:34:20;7;5;
28026;PMS5003;15344;52.342;-1.290;2023-04-24T03:36:45;7;6;
28026;PMS5003;15344;52.342;-1.290;2023-04-24T03:39:11;7;6;
28026;PMS5003;15344;52.342;-1.290;2023-04-24T03:41:36;5;5;
28026;PMS5003;15344;52.342;-1.290;2023-04-24T03:44:02;8;5;
28026;PMS5003;15344;52.342;-1.290;2023-04-24T03:46:27;6;5;
28026;PMS5003;15344;52.342;-1.290;2023-04-24T03:48:52;8;7;
28026;PMS5003;15344;52.342;-1.290;2023-04-24T03:51:18;9;6;
28026;PMS5003;15344;52.342;-1.290;2023-04-24T03:53:43;10;9;
28026;PMS5003;15344;52.342;-1.290;2023-04-24T03:56:09;6;5;
28026;PMS5003;15344;52.342;-1.290;2023-04-24T03:58:35;7;6;
28026;PMS5003;15344;52.342;-1.290;2023-04-24T04:01:00;8;8;
28026;PMS5003;15344;52.342;-1.290;2023-04-24T04:03:25;9;6;
28026;PMS5003;15344;52.342;-1.290;2023-04-24T04:05:51;6;6;
28026;PMS5003;15344;52.342;-1.290;2023-04-24T04:08:16;4;4;
28026;PMS5003;15344;52.342;-1.290;2023-04-24T04:10:41;9;7;
28026;PMS5003;15344;52.342;-1.290;2023-04-24T04:13:07;9;7;
28026;PMS5003;15344;52.342;-1.290;2023-04-24T04:15:32;5;5;
28026;PMS5003;15344;52.342;-1.290;2023-04-24T04:17:58;6;3;
28026;PMS5003;15344;52.342;-1.290;2023-04-24T04:20:23;6;4;
28026;PMS5003;15344;52.342;-1.290;2023-04-24T04:22:49;3;3;
28026;PMS5003;15344;52.342;-1.290;2023-04-24T04:25:14;4;3;
28026;PMS5003;15344;52.342;-1.290;2023-04-24T04:27:39;5;4;
28026;PMS5003;15344;52.342;-1.290;2023-04-24T04:30:05;4;4;
28026;PMS5003;15344;52.342;-1.290;2023-04-24T04:32:30;3;3;
28026;PMS5003;15344;52.342;-1.290;2023-04-24T04:34:55;5;4;
28026;PMS5003;15344;52.342;-1.290;2023-04-24T04:37:21;5;4;
28026;PMS5003;15344;52.342;-1.290;2023-04-24T04:39:46;4;4;
28026;PMS5003;15344;52.342;-1.290;2023-04-24T04:42:12;7;6;
28026;PMS5003;15344;52.342;-1.290;2023-04-24T04:44:37;7;5;
28026;PMS5003;15344;52.342;-1.290;2023-04-24T04:47:03;6;4;
28026;PMS5003;15344;52.342;-1.290;2023-04-24T04:49:28;3;3;
28026;PMS5003;15344;52.342;-1.290;2023-04-24T04:51:53;5;4;
28026;PMS5003;15344;52.342;-1.290;2023-04-24T04:54:19;7;4;
28026;PMS5003;15344;52.342;-1.290;2023-04-24T04:56:44;7;4;
28026;PMS5003;15344;52.342;-1.290;2023-04-24T04:59:10;5;4;
28026;PMS5003;15344;52.342;-1.290;2023-04-24T05:01:35;5;5;
28026;PMS5003;15344;52.342;-1.290;2023-04-24T05:04:00;4;3;
28026;PMS5003;15344;52.342;-1.290;2023-04-24T05:06:26;5;4;
28026;PMS5003;15344;52.342;-1.290;2023-04-24T05:08:51;6;5;
28026;PMS5003;15344;52.342;-1.290;2023-04-24T05:11:17;5;3;
28026;PMS5003;15344;52.342;-1.290;2023-04-24T05:13:42;2;2;
28026;PMS5003;15344;52.342;-1.290;2023-04-24T05:16:07;4;3;
28026;PMS5003;15344;52.342;-1.290;2023-04-24T05:18:33;3;3;
28026;PMS5003;15344;52.342;-1.290;2023-04-24T05:20:58;3;3;
28026;PMS5003;15344;52.342;-1.290;2023-04-24T05:23:24;6;3;
28026;PMS5003;15344;52.342;-1.290;2023-04-24T05:25:49;4;4;
28026;PMS5003;15344;52.342;-1.290;2023-04-24T05:28:15;5;3;
28026;PMS5003;15344;52.342;-1.290;2023-04-24T05:30:40;7;3;
28026;PMS5003;15344;52.342;-1.290;2023-04-24T05:33:06;5;5;
28026;PMS5003;15344;52.342;-1.290;2023-04-24T05:35:31;5;2;
28026;PMS5003;15344;52.342;-1.290;2023-04-24T05:37:56;7;2;
28026;PMS5003;15344;52.342;-1.290;2023-04-24T05:40:22;5;3;
28026;PMS5003;15344;52.342;-1.290;2023-04-24T05:42:47;2;2;
28026;PMS5003;15344;52.342;-1.290;2023-04-24T05:45:13;4;4;
28026;PMS5003;15344;52.342;-1.290;2023-04-24T05:47:38;5;2;
28026;PMS5003;15344;52.342;-1.290;2023-04-24T05:50:04;4;3;
28026;PMS5003;15344;52.342;-1.290;2023-04-24T05:52:29;4;4;
28026;PMS5003;15344;52.342;-1.290;2023-04-24T05:54:54;3;3;
28026;PMS5003;15344;52.342;-1.290;2023-04-24T05:57:20;5;2;
28026;PMS5003;15344;52.342;-1.290;2023-04-24T05:59:45;2;2;
28026;PMS5003;15344;52.342;-1.290;2023-04-24T06:02:11;4;3;
28026;PMS5003;15344;52.342;-1.290;2023-04-24T06:04:36;2;1;
28026;PMS5003;15344;52.342;-1.290;2023-04-24T06:07:02;5;2;
28026;PMS5003;15344;52.342;-1.290;2023-04-24T06:09:27;3;3;
28026;PMS5003;15344;52.342;-1.290;2023-04-24T06:11:52;4;3;
28026;PMS5003;15344;52.342;-1.290;2023-04-24T06:14:18;5;3;
28026;PMS5003;15344;52.342;-1.290;2023-04-24T06:16:43;5;2;
28026;PMS5003;15344;52.342;-1.290;2023-04-24T06:19:09;4;2;
28026;PMS5003;15344;52.342;-1.290;2023-04-24T06:21:34;2;1;
28026;PMS5003;15344;52.342;-1.290;2023-04-24T06:24:00;4;2;
28026;PMS5003;15344;52.342;-1.290;2023-04-24T06:26:25;4;3;
28026;PMS5003;15344;52.342;-1.290;2023-04-24T06:28:50;4;2;
28026;PMS5003;15344;52.342;-1.290;2023-04-24T06:31:16;2;2;
28026;PMS5003;15344;52.342;-1.290;2023-04-24T06:33:41;3;3;
28026;PMS5003;15344;52.342;-1.290;2023-04-24T06:36:07;1;1;
28026;PMS5003;15344;52.342;-1.290;2023-04-24T06:38:32;4;3;
28026;PMS5003;15344;52.342;-1.290;2023-04-24T06:40:57;3;2;
28026;PMS5003;15344;52.342;-1.290;2023-04-24T06:43:23;1;1;
28026;PMS5003;15344;52.342;-1.290;2023-04-24T06:45:48;4;2;
28026;PMS5003;15344;52.342;-1.290;2023-04-24T06:48:14;3;1;
28026;PMS5003;15344;52.342;-1.290;2023-04-24T06:50:39;3;3;
28026;PMS5003;15344;52.342;-1.290;2023-04-24T06:53:04;3;3;
28026;PMS5003;15344;52.342;-1.290;2023-04-24T06:55:30;2;2;
28026;PMS5003;15344;52.342;-1.290;2023-04-24T06:57:55;2;2;
28026;PMS5003;15344;52.342;-1.290;2023-04-24T07:00:21;3;3;
28026;PMS5003;15344;52.342;-1.290;2023-04-24T07:02:46;5;3;
28026;PMS5003;15344;52.342;-1.290;2023-04-24T07:05:12;1;1;
28026;PMS5003;15344;52.342;-1.290;2023-04-24T07:07:37;2;2;
28026;PMS5003;15344;52.342;-1.290;2023-04-24T07:10:03;2;2;
28026;PMS5003;15344;52.342;-1.290;2023-04-24T07:12:28;0;0;
28026;PMS5003;15344;52.342;-1.290;2023-04-24T07:14:53;5;1;
28026;PMS5003;15344;52.342;-1.290;2023-04-24T07:17:19;3;3;
28026;PMS5003;15344;52.342;-1.290;2023-04-24T07:19:44;5;2;
28026;PMS5003;15344;52.342;-1.290;2023-04-24T07:22:10;3;3;
28026;PMS5003;15344;52.342;-1.290;2023-04-24T07:24:35;4;4;
28026;PMS5003;15344;52.342;-1.290;2023-04-24T07:27:05;3;3;
28026;PMS5003;15344;52.342;-1.290;2023-04-24T07:29:26;3;1;
28026;PMS5003;15344;52.342;-1.290;2023-04-24T07:31:51;4;2;
28026;PMS5003;15344;52.342;-1.290;2023-04-24T07:34:16;1;1;
28026;PMS5003;15344;52.342;-1.290;2023-04-24T07:36:42;2;2;
28026;PMS5003;15344;52.342;-1.290;2023-04-24T07:39:07;3;2;
28026;PMS5003;15344;52.342;-1.290;2023-04-24T07:41:33;3;3;
28026;PMS5003;15344;52.342;-1.290;2023-04-24T07:43:58;6;3;
28026;PMS5003;15344;52.342;-1.290;2023-04-24T07:46:24;5;2;
28026;PMS5003;15344;52.342;-1.290;2023-04-24T07:48:49;3;3;
28026;PMS5003;15344;52.342;-1.290;2023-04-24T07:51:14;3;1;
28026;PMS5003;15344;52.342;-1.290;2023-04-24T07:53:40;4;2;
28026;PMS5003;15344;52.342;-1.290;2023-04-24T07:56:05;2;2;
28026;PMS5003;15344;52.342;-1.290;2023-04-24T07:58:30;2;2;
28026;PMS5003;15344;52.342;-1.290;2023-04-24T08:00:56;2;2;
28026;PMS5003;15344;52.342;-1.290;2023-04-24T08:03:21;3;3;
28026;PMS5003;15344;52.342;-1.290;2023-04-24T08:05:47;2;2;
28026;PMS5003;15344;52.342;-1.290;2023-04-24T08:08:12;4;3;
28026;PMS5003;15344;52.342;-1.290;2023-04-24T08:10:37;4;3;
28026;PMS5003;15344;52.342;-1.290;2023-04-24T08:13:03;2;2;
28026;PMS5003;15344;52.342;-1.290;2023-04-24T08:15:28;1;1;
28026;PMS5003;15344;52.342;-1.290;2023-04-24T08:17:53;1;1;
28026;PMS5003;15344;52.342;-1.290;2023-04-24T08:20:19;3;1;
28026;PMS5003;15344;52.342;-1.290;2023-04-24T08:22:44;0;0;
28026;PMS5003;15344;52.342;-1.290;2023-04-24T08:25:09;2;2;
28026;PMS5003;15344;52.342;-1.290;2023-04-24T08:27:34;4;2;
28026;PMS5003;15344;52.342;-1.290;2023-04-24T08:30:00;4;2;
28026;PMS5003;15344;52.342;-1.290;2023-04-24T08:32:25;3;2;
28026;PMS5003;15344;52.342;-1.290;2023-04-24T08:34:50;3;0;
28026;PMS5003;15344;52.342;-1.290;2023-04-24T08:37:16;1;1;
28026;PMS5003;15344;52.342;-1.290;2023-04-24T08:39:41;4;3;
28026;PMS5003;15344;52.342;-1.290;2023-04-24T08:42:07;4;3;
28026;PMS5003;15344;52.342;-1.290;2023-04-24T08:44:32;0;0;
28026;PMS5003;15344;52.342;-1.290;2023-04-24T08:46:57;2;2;
28026;PMS5003;15344;52.342;-1.290;2023-04-24T08:49:22;2;2;
28026;PMS5003;15344;52.342;-1.290;2023-04-24T08:51:47;4;3;
28026;PMS5003;15344;52.342;-1.290;2023-04-24T08:54:12;1;1;
28026;PMS5003;15344;52.342;-1.290;2023-04-24T08:56:38;10;8;
28026;PMS5003;15344;52.342;-1.290;2023-04-24T08:59:03;13;10;
28026;PMS5003;15344;52.342;-1.290;2023-04-24T09:01:28;4;1;
28026;PMS5003;15344;52.342;-1.290;2023-04-24T09:03:54;2;1;
28026;PMS5003;15344;52.342;-1.290;2023-04-24T09:06:19;5;3;
28026;PMS5003;15344;52.342;-1.290;2023-04-24T09:08:45;7;6;
28026;PMS5003;15344;52.342;-1.290;2023-04-24T09:11:10;12;11;
28026;PMS5003;15344;52.342;-1.290;2023-04-24T09:13:36;5;3;
28026;PMS5003;15344;52.342;-1.290;2023-04-24T09:16:01;5;3;
28026;PMS5003;15344;52.342;-1.290;2023-04-24T09:18:26;3;3;
28026;PMS5003;15344;52.342;-1.290;2023-04-24T09:23:17;3;2;
28026;PMS5003;15344;52.342;-1.290;2023-04-24T09:25:42;3;3;
28026;PMS5003;15344;52.342;-1.290;2023-04-24T09:28:07;4;2;
28026;PMS5003;15344;52.342;-1.290;2023-04-24T09:30:33;4;4;
28026;PMS5003;15344;52.342;-1.290;2023-04-24T09:35:24;14;10;
28026;PMS5003;15344;52.342;-1.290;2023-04-24T09:37:49;16;16;
28026;PMS5003;15344;52.342;-1.290;2023-04-24T09:40:15;18;13;
28026;PMS5003;15344;52.342;-1.290;2023-04-24T09:42:40;17;13;
28026;PMS5003;15344;52.342;-1.290;2023-04-24T09:45:08;9;8;
28026;PMS5003;15344;52.342;-1.290;2023-04-24T09:49:57;4;4;
28026;PMS5003;15344;52.342;-1.290;2023-04-24T09:52:20;11;9;
28026;PMS5003;15344;52.342;-1.290;2023-04-24T09:54:50;5;5;
28026;PMS5003;15344;52.342;-1.290;2023-04-24T09:57:11;5;3;
28026;PMS5003;15344;52.342;-1.290;2023-04-24T09:59:38;7;5;
28026;PMS5003;15344;52.342;-1.290;2023-04-24T10:02:02;5;5;
28026;PMS5003;15344;52.342;-1.290;2023-04-24T10:04:28;4;3;
28026;PMS5003;15344;52.342;-1.290;2023-04-24T10:06:53;5;3;
28026;PMS5003;15344;52.342;-1.290;2023-04-24T10:09:20;5;5;
28026;PMS5003;15344;52.342;-1.290;2023-04-24T10:11:45;6;3;
28026;PMS5003;15344;52.342;-1.290;2023-04-24T10:14:09;4;4;
28026;PMS5003;15344;52.342;-1.290;2023-04-24T10:16:35;6;4;
28026;PMS5003;15344;52.342;-1.290;2023-04-24T10:19:00;5;5;
28026;PMS5003;15344;52.342;-1.290;2023-04-24T10:21:25;3;3;
28026;PMS5003;15344;52.342;-1.290;2023-04-24T10:23:50;5;4;
28026;PMS5003;15344;52.342;-1.290;2023-04-24T10:26:15;3;3;
28026;PMS5003;15344;52.342;-1.290;2023-04-24T10:28:41;3;3;
28026;PMS5003;15344;52.342;-1.290;2023-04-24T10:31:06;5;5;
28026;PMS5003;15344;52.342;-1.290;2023-04-24T10:33:31;6;3;
28026;PMS5003;15344;52.342;-1.290;2023-04-24T10:35:56;4;2;
28026;PMS5003;15344;52.342;-1.290;2023-04-24T10:38:22;4;4;
28026;PMS5003;15344;52.342;-1.290;2023-04-24T10:40:47;3;3;
28026;PMS5003;15344;52.342;-1.290;2023-04-24T10:43:13;5;5;
28026;PMS5003;15344;52.342;-1.290;2023-04-24T10:45:37;5;4;
28026;PMS5003;15344;52.342;-1.290;2023-04-24T10:48:03;6;3;
28026;PMS5003;15344;52.342;-1.290;2023-04-24T10:50:28;9;5;
28026;PMS5003;15344;52.342;-1.290;2023-04-24T10:52:53;8;6;
28026;PMS5003;15344;52.342;-1.290;2023-04-24T11:00:11;5;5;
28026;PMS5003;15344;52.342;-1.290;2023-04-24T11:02:35;4;3;
28026;PMS5003;15344;52.342;-1.290;2023-04-24T11:05:01;5;3;
28026;PMS5003;15344;52.342;-1.290;2023-04-24T11:07:24;5;3;
28026;PMS5003;15344;52.342;-1.290;2023-04-24T11:09:50;6;6;
28026;PMS5003;15344;52.342;-1.290;2023-04-24T11:12:16;4;3;
28026;PMS5003;15344;52.342;-1.290;2023-04-24T11:17:06;5;2;
28026;PMS5003;15344;52.342;-1.290;2023-04-24T11:19:31;3;1;
28026;PMS5003;15344;52.342;-1.290;2023-04-24T11:21:58;2;2;
28026;PMS5003;15344;52.342;-1.290;2023-04-24T11:24:23;3;3;
28026;PMS5003;15344;52.342;-1.290;2023-04-24T11:26:47;5;5;
28026;PMS5003;15344;52.342;-1.290;2023-04-24T11:29:12;5;3;
28026;PMS5003;15344;52.342;-1.290;2023-04-24T11:31:37;2;2;
28026;PMS5003;15344;52.342;-1.290;2023-04-24T11:34:07;14;12;
28026;PMS5003;15344;52.342;-1.290;2023-04-24T11:36:28;14;12;
28026;PMS5003;15344;52.342;-1.290;2023-04-24T11:38:53;4;4;
28026;PMS5003;15344;52.342;-1.290;2023-04-24T11:41:19;11;9;
28026;PMS5003;15344;52.342;-1.290;2023-04-24T11:43:44;5;5;
28026;PMS5003;15344;52.342;-1.290;2023-04-24T11:46:09;5;4;
28026;PMS5003;15344;52.342;-1.290;2023-04-24T11:48:34;2;2;
28026;PMS5003;15344;52.342;-1.290;2023-04-24T11:51:01;4;4;
28026;PMS5003;15344;52.342;-1.290;2023-04-24T11:53:25;6;3;
28026;PMS5003;15344;52.342;-1.290;2023-04-24T11:55:50;8;5;
28026;PMS5003;15344;52.342;-1.290;2023-04-24T11:58:16;3;3;
28026;PMS5003;15344;52.342;-1.290;2023-04-24T12:00:41;3;3;
28026;PMS5003;15344;52.342;-1.290;2023-04-24T12:03:07;5;4;
28026;PMS5003;15344;52.342;-1.290;2023-04-24T12:05:31;5;5;
28026;PMS5003;15344;52.342;-1.290;2023-04-24T12:07:57;4;3;
28026;PMS5003;15344;52.342;-1.290;2023-04-24T12:10:22;7;5;
28026;PMS5003;15344;52.342;-1.290;2023-04-24T12:12:48;4;3;
28026;PMS5003;15344;52.342;-1.290;2023-04-24T12:15:12;6;4;
28026;PMS5003;15344;52.342;-1.290;2023-04-24T12:17:40;5;4;
28026;PMS5003;15344;52.342;-1.290;2023-04-24T12:20:04;3;3;
28026;PMS5003;15344;52.342;-1.290;2023-04-24T12:22:28;4;4;
28026;PMS5003;15344;52.342;-1.290;2023-04-24T12:24:57;5;5;
28026;PMS5003;15344;52.342;-1.290;2023-04-24T12:27:19;6;6;
28026;PMS5003;15344;52.342;-1.290;2023-04-24T12:34:34;4;4;
28026;PMS5003;15344;52.342;-1.290;2023-04-24T12:39:24;7;7;
28026;PMS5003;15344;52.342;-1.290;2023-04-24T12:41:53;4;4;
28026;PMS5003;15344;52.342;-1.290;2023-04-24T12:44:16;4;3;
28026;PMS5003;15344;52.342;-1.290;2023-04-24T12:46:41;6;4;
28026;PMS5003;15344;52.342;-1.290;2023-04-24T12:49:06;12;7;
28026;PMS5003;15344;52.342;-1.290;2023-04-24T12:51:32;39;32;
28026;PMS5003;15344;52.342;-1.290;2023-04-24T12:53:57;15;8;
28026;PMS5003;15344;52.342;-1.290;2023-04-24T12:56:22;11;9;
28026;PMS5003;15344;52.342;-1.290;2023-04-24T12:58:48;5;5;
28026;PMS5003;15344;52.342;-1.290;2023-04-24T13:01:13;11;10;
28026;PMS5003;15344;52.342;-1.290;2023-04-24T13:03:38;3;3;
28026;PMS5003;15344;52.342;-1.290;2023-04-24T13:06:03;6;4;
28026;PMS5003;15344;52.342;-1.290;2023-04-24T13:08:29;8;5;
28026;PMS5003;15344;52.342;-1.290;2023-04-24T13:10:54;6;5;
28026;PMS5003;15344;52.342;-1.290;2023-04-24T13:13:19;8;5;
28026;PMS5003;15344;52.342;-1.290;2023-04-24T13:15:44;6;6;
28026;PMS5003;15344;52.342;-1.290;2023-04-24T13:18:10;7;6;
28026;PMS5003;15344;52.342;-1.290;2023-04-24T13:20:35;6;6;
28026;PMS5003;15344;52.342;-1.290;2023-04-24T13:23:00;5;3;
28026;PMS5003;15344;52.342;-1.290;2023-04-24T13:25:25;4;4;
28026;PMS5003;15344;52.342;-1.290;2023-04-24T13:27:51;9;5;
28026;PMS5003;15344;52.342;-1.290;2023-04-24T13:30:16;8;7;
28026;PMS5003;15344;52.342;-1.290;2023-04-24T13:32:42;6;5;
28026;PMS5003;15344;52.342;-1.290;2023-04-24T13:35:07;6;3;
28026;PMS5003;15344;52.342;-1.290;2023-04-24T13:37:32;5;5;
28026;PMS5003;15344;52.342;-1.290;2023-04-24T13:39:58;7;5;
28026;PMS5003;15344;52.342;-1.290;2023-04-24T13:42:23;7;6;
28026;PMS5003;15344;52.342;-1.290;2023-04-24T13:44:48;7;5;
28026;PMS5003;15344;52.342;-1.290;2023-04-24T13:47:13;9;7;
28026;PMS5003;15344;52.342;-1.290;2023-04-24T13:49:38;6;4;
28026;PMS5003;15344;52.342;-1.290;2023-04-24T13:52:04;8;6;
28026;PMS5003;15344;52.342;-1.290;2023-04-24T13:54:29;7;7;
28026;PMS5003;15344;52.342;-1.290;2023-04-24T13:56:55;11;9;
28026;PMS5003;15344;52.342;-1.290;2023-04-24T13:59:20;10;8;
28026;PMS5003;15344;52.342;-1.290;2023-04-24T14:01:45;9;7;
28026;PMS5003;15344;52.342;-1.290;2023-04-24T14:04:10;56;46;
28026;PMS5003;15344;52.342;-1.290;2023-04-24T14:06:35;87;71;
28026;PMS5003;15344;52.342;-1.290;2023-04-24T14:09:01;102;74;
28026;PMS5003;15344;52.342;-1.290;2023-04-24T14:11:26;210;156;
28026;PMS5003;15344;52.342;-1.290;2023-04-24T14:13:52;64;48;
28026;PMS5003;15344;52.342;-1.290;2023-04-24T14:16:17;11;7;
28026;PMS5003;15344;52.342;-1.290;2023-04-24T14:18:43;10;7;
28026;PMS5003;15344;52.342;-1.290;2023-04-24T14:21:08;7;7;
28026;PMS5003;15344;52.342;-1.290;2023-04-24T14:23:33;7;7;
28026;PMS5003;15344;52.342;-1.290;2023-04-24T14:25:58;11;10;
28026;PMS5003;15344;52.342;-1.290;2023-04-24T14:28:23;6;5;
28026;PMS5003;15344;52.342;-1.290;2023-04-24T14:30:49;6;5;
28026;PMS5003;15344;52.342;-1.290;2023-04-24T14:33:14;8;6;
28026;PMS5003;15344;52.342;-1.290;2023-04-24T14:35:39;6;5;
28026;PMS5003;15344;52.342;-1.290;2023-04-24T14:38:04;19;17;
28026;PMS5003;15344;52.342;-1.290;2023-04-24T14:40:30;14;12;
28026;PMS5003;15344;52.342;-1.290;2023-04-24T14:42:55;9;9;
28026;PMS5003;15344;52.342;-1.290;2023-04-24T14:45:20;10;9;
28026;PMS5003;15344;52.342;-1.290;2023-04-24T14:47:46;7;5;
28026;PMS5003;15344;52.342;-1.290;2023-04-24T14:50:11;4;4;
28026;PMS5003;15344;52.342;-1.290;2023-04-24T14:52:36;8;7;
28026;PMS5003;15344;52.342;-1.290;2023-04-24T14:55:02;4;4;
28026;PMS5003;15344;52.342;-1.290;2023-04-24T14:57:27;7;7;
28026;PMS5003;15344;52.342;-1.290;2023-04-24T14:59:53;9;6;
28026;PMS5003;15344;52.342;-1.290;2023-04-24T15:02:17;6;6;
28026;PMS5003;15344;52.342;-1.290;2023-04-24T15:04:43;7;6;
28026;PMS5003;15344;52.342;-1.290;2023-04-24T15:07:08;7;7;
28026;PMS5003;15344;52.342;-1.290;2023-04-24T15:09:34;7;4;
28026;PMS5003;15344;52.342;-1.290;2023-04-24T15:11:59;9;6;
28026;PMS5003;15344;52.342;-1.290;2023-04-24T15:14:24;8;5;
28026;PMS5003;15344;52.342;-1.290;2023-04-24T15:16:50;7;7;
28026;PMS5003;15344;52.342;-1.290;2023-04-24T15:19:15;8;6;
28026;PMS5003;15344;52.342;-1.290;2023-04-24T15:21:40;7;5;
28026;PMS5003;15344;52.342;-1.290;2023-04-24T15:24:05;8;8;
28026;PMS5003;15344;52.342;-1.290;2023-04-24T15:26:31;7;5;
28026;PMS5003;15344;52.342;-1.290;2023-04-24T15:28:56;8;7;
28026;PMS5003;15344;52.342;-1.290;2023-04-24T15:31:22;9;7;
28026;PMS5003;15344;52.342;-1.290;2023-04-24T15:33:47;8;6;
28026;PMS5003;15344;52.342;-1.290;2023-04-24T15:36:12;10;7;
28026;PMS5003;15344;52.342;-1.290;2023-04-24T15:38:38;11;8;
28026;PMS5003;15344;52.342;-1.290;2023-04-24T15:41:03;9;6;
28026;PMS5003;15344;52.342;-1.290;2023-04-24T15:43:28;17;8;
28026;PMS5003;15344;52.342;-1.290;2023-04-24T15:45:54;11;9;
28026;PMS5003;15344;52.342;-1.290;2023-04-24T15:48:19;9;8;
28026;PMS5003;15344;52.342;-1.290;2023-04-24T15:50:44;9;7;
28026;PMS5003;15344;52.342;-1.290;2023-04-24T15:53:09;8;8;
28026;PMS5003;15344;52.342;-1.290;2023-04-24T15:55:35;9;9;
28026;PMS5003;15344;52.342;-1.290;2023-04-24T15:58:00;7;7;
28026;PMS5003;15344;52.342;-1.290;2023-04-24T16:00:26;9;6;
28026;PMS5003;15344;52.342;-1.290;2023-04-24T16:02:51;8;8;
28026;PMS5003;15344;52.342;-1.290;2023-04-24T16:05:16;10;7;
28026;PMS5003;15344;52.342;-1.290;2023-04-24T16:07:41;12;6;
28026;PMS5003;15344;52.342;-1.290;2023-04-24T16:10:07;9;8;
28026;PMS5003;15344;52.342;-1.290;2023-04-24T16:12:32;9;7;
28026;PMS5003;15344;52.342;-1.290;2023-04-24T16:14:57;9;8;
28026;PMS5003;15344;52.342;-1.290;2023-04-24T16:17:23;18;16;
28026;PMS5003;15344;52.342;-1.290;2023-04-24T16:19:48;16;13;
28026;PMS5003;15344;52.342;-1.290;2023-04-24T16:22:13;13;9;
28026;PMS5003;15344;52.342;-1.290;2023-04-24T16:24:39;9;9;
28026;PMS5003;15344;52.342;-1.290;2023-04-24T16:27:04;8;7;
28026;PMS5003;15344;52.342;-1.290;2023-04-24T16:29:30;10;10;
28026;PMS5003;15344;52.342;-1.290;2023-04-24T16:31:55;7;7;
28026;PMS5003;15344;52.342;-1.290;2023-04-24T16:34:21;8;6;